Pagrindinis puslapis
METAR-TAF:

METAR-TAF

Oro uostai :

Foz do Iguasu, Parana, Brazilija

platuma: 25-31S, ilguma: 054-35W, Aukštis: 180 m

Dabartinis oras

Ataskaita buvo paskelbta 1 valandą ir 8 minutes, ne 21:00 UTC
Vėjas 3 kt iš Šiaurės/Šiaurės Vakarų
Temperatūra 34°C
Drėgmė 30%
Slėgis 1008 hPa
Matomumas 10 km arba daugiau
nėra debesų žemiau 1500 m ir nėra kamuolinių lietaus debesų

METAR: SBFI 162100Z 34003KT CAVOK 34/14 Q1008

Laikas: 19:08 (22:08 UTC)

Prognozė

Ataskaita buvo paskelbta 6 valandos ir 8 minutes, ne 16:00 UTC
Prognozė galioja nuo 16 metu 18 UTC su 17 metu 18 UTC
Vėjas 8 kt iš Šiaurės
Matomumas 10 km arba daugiau
nėra debesų žemiau 1500 m ir nėra kamuolinių lietaus debesų
Tapsmas
nuo 16 metu 21 UTC su 16 metu 23 UTC
Vėjas 8 kt iš Rytų

TAF: SBFI 161600Z 1618/1718 01008KT CAVOK TX37/1618Z TN23/1708Z BECMG 1621/1623 08008KT RMK PDU

Orai ataskaitas ir orų prognozės (METAR, TAF).

turimą stotys yra geltonos ir raudonos taškus žemėlapyje.

Perkelti pele per norėdami pamatyti stoties vardą.

Tada spustelėkite, norėdami matyti oro stebėjimo ir prognozės.

Norėdami pakeisti žemėlapį: spustelėkite ant žalios mygtukų su juodo kryžiaus žemyn,; žalią mygtuką su brūkšneliu, jei norite nutolinti; arba žalių rodyklių gretimoms žemėlapius.


METAR-TAF: